VLVT/VTE METAR and TAF weather

Enter ICAO airport designator
Station Type Date Time Source
VLVT METAR 2022/12/04 12:00 UTC NOAA

VLVT 041200Z 02002KT 6000 SCT200 25/20 Q1012 NOSIG


Station Type Date Time Source
VLVT Decoded METAR 2022/12/04 12:00 UTC NOAA

Vientiane, Laos (VLVT) 17-57N 102-34E 171M
Dec 04, 2022 - 07:00 AM EST / 2022.12.04 1200 UTC
Wind: from the NNE (020 degrees) at 2 MPH (2 KT):0
Visibility: 3 mile(s):0
Sky conditions: partly cloudy
Temperature: 77 F (25 C)
Dew Point: 68 F (20 C)
Relative Humidity: 73%
Pressure (altimeter): 29.88 in. Hg (1012 hPa)
ob: VLVT 041200Z 02002KT 6000 SCT200 25/20 Q1012 NOSIG
cycle: 12

Station Type Date Time Source
VLVT TAF 2022/12/04 12:15 UTC NOAA

TAF TAF VLVT 041100Z 0412/0512 34004KT 4000 BR FEW050 SCT200

Example: see airport list